Time;durP1;ratioP1;P1;durP2;ratioP2;P2;SDS_P1;SDS_P2;PMS_P1;PMS_P2;Temp;Humidity;BMP_temperature;BMP_pressure;BME280_temperature;BME280_humidity;BME280_pressure;Samples;Min_cycle;Max_cycle;Signal;HPM_P1;HPM_P2
2022/06/11 00:02:38;;;;;;;7.90;5.70;;;;;;;19.62;62.89;99483.15;233533;1220;138240;-58
2022/06/11 00:07:42;;;;;;;6.80;5.00;;;;;;;19.64;63.00;99486.20;233320;1220;137785;-59
2022/06/11 00:12:45;;;;;;;7.90;5.00;;;;;;;19.62;63.01;99480.59;233287;1220;139461;-59
2022/06/11 00:17:48;;;;;;;7.90;5.80;;;;;;;19.66;62.97;99478.10;233429;1218;138453;-60
2022/06/11 00:22:51;;;;;;;9.30;5.80;;;;;;;19.70;63.14;99479.05;233395;1219;139385;-59
2022/06/11 00:27:54;;;;;;;7.90;5.50;;;;;;;19.71;63.09;99476.91;233303;1220;138164;-58
2022/06/11 00:32:58;;;;;;;6.30;5.70;;;;;;;19.72;63.00;99470.19;233364;1219;138725;-60
2022/06/11 00:38:01;;;;;;;6.70;5.70;;;;;;;19.66;62.87;99477.98;232401;1220;138656;-60
2022/06/11 00:43:06;;;;;;;7.80;5.10;;;;;;;19.55;62.87;99476.24;233586;1218;139195;-59
2022/06/11 00:48:16;;;;;;;5.90;5.30;;;;;;;19.49;62.84;99483.80;233012;1220;139921;-59
2022/06/11 00:53:30;;;;;;;8.20;5.80;;;;;;;19.44;62.97;99481.02;233525;1219;138496;-59
2022/06/11 00:58:37;;;;;;;6.50;5.60;;;;;;;19.41;63.10;99485.05;233339;1220;138744;-58
2022/06/11 01:03:44;;;;;;;6.40;5.40;;;;;;;19.38;63.18;99491.30;233429;1220;140470;-58
2022/06/11 01:08:58;;;;;;;9.80;6.10;;;;;;;19.34;63.20;99492.56;233359;1220;138896;-58
2022/06/11 01:14:04;;;;;;;6.40;5.80;;;;;;;19.24;63.10;99482.09;233546;1219;139202;-59
2022/06/11 01:19:39;;;;;;;7.20;6.00;;;;;;;19.13;63.09;99484.52;233484;1220;138158;-58
2022/06/11 01:25:09;;;;;;;8.50;5.50;;;;;;;19.06;63.21;99489.67;233502;1219;139296;-59
2022/06/11 01:30:16;;;;;;;10.00;5.90;;;;;;;19.01;63.37;99489.74;233154;1219;138473;-59
2022/06/11 01:35:22;;;;;;;10.00;6.30;;;;;;;18.96;63.56;99487.52;233276;1220;139099;-59
2022/06/11 01:40:39;;;;;;;7.30;6.10;;;;;;;18.91;63.51;99490.85;233552;1219;138964;-60
2022/06/11 01:45:42;;;;;;;9.20;6.50;;;;;;;18.82;63.53;99488.29;233509;1219;137984;-60
2022/06/11 01:51:30;;;;;;;6.10;5.30;;;;;;;18.74;63.65;99492.77;233335;1220;138391;-61
2022/06/11 01:56:53;;;;;;;10.30;5.60;;;;;;;18.71;63.71;99494.09;233423;1221;138460;-60
2022/06/11 02:02:04;;;;;;;6.80;6.10;;;;;;;18.74;63.94;99495.77;233024;1220;138897;-58
2022/06/11 02:07:13;;;;;;;9.40;6.10;;;;;;;18.75;63.88;99501.50;233526;1219;138484;-58
2022/06/11 02:12:44;;;;;;;8.80;6.40;;;;;;;18.72;64.23;99493.60;233408;1220;140190;-59
2022/06/11 02:17:53;;;;;;;10.50;6.80;;;;;;;18.67;64.14;99501.05;233498;1220;138168;-58
2022/06/11 02:23:02;;;;;;;8.50;5.90;;;;;;;18.63;64.30;99503.91;233219;1220;138462;-59
2022/06/11 02:28:10;;;;;;;10.00;6.20;;;;;;;18.61;64.23;99508.19;233541;1220;139259;-59
2022/06/11 02:33:15;;;;;;;9.50;6.10;;;;;;;18.64;64.66;99509.88;233202;1218;139650;-57
2022/06/11 02:38:24;;;;;;;10.70;5.90;;;;;;;18.67;64.60;99510.59;233511;1219;139256;-58
2022/06/11 02:43:28;;;;;;;11.90;6.30;;;;;;;18.67;64.61;99516.87;233443;1219;140016;-58
2022/06/11 02:48:31;;;;;;;9.00;6.80;;;;;;;18.63;64.60;99519.71;233468;1220;138259;-59
2022/06/11 02:53:34;;;;;;;8.60;5.80;;;;;;;18.64;64.87;99530.98;233432;1219;140225;-59
2022/06/11 02:58:37;;;;;;;9.40;6.70;;;;;;;18.67;64.73;99533.74;233463;1220;139452;-59
2022/06/11 03:03:40;;;;;;;8.80;6.10;;;;;;;18.71;64.86;99529.86;233687;1219;138501;-60
2022/06/11 03:08:43;;;;;;;8.10;6.70;;;;;;;18.73;64.92;99531.27;233466;1219;138207;-59
2022/06/11 03:13:47;;;;;;;9.30;7.00;;;;;;;18.76;64.95;99531.19;233425;1217;138605;-59
2022/06/11 03:18:50;;;;;;;11.20;6.30;;;;;;;18.76;64.88;99529.76;233473;1219;138536;-60
2022/06/11 03:23:52;;;;;;;9.20;5.80;;;;;;;18.76;64.67;99526.50;233458;1219;138471;-60
2022/06/11 03:28:56;;;;;;;11.00;5.80;;;;;;;18.74;64.63;99519.02;233498;1220;138992;-58
2022/06/11 03:33:59;;;;;;;11.70;6.50;;;;;;;18.77;64.70;99517.61;233430;1219;138688;-61
2022/06/11 03:39:03;;;;;;;7.30;5.70;;;;;;;18.77;64.61;99506.18;233568;1218;139462;-59
2022/06/11 03:44:06;;;;;;;6.30;5.40;;;;;;;18.76;64.56;99519.77;233406;1219;138454;-58
2022/06/11 03:49:09;;;;;;;9.10;4.50;;;;;;;18.78;64.73;99518.14;233476;1219;138420;-60
2022/06/11 03:54:14;;;;;;;6.40;4.00;;;;;;;18.84;64.69;99523.09;233465;1217;138211;-60
2022/06/11 03:59:17;;;;;;;7.50;3.90;;;;;;;18.91;64.40;99523.18;233507;1219;138952;-60
2022/06/11 04:04:21;;;;;;;5.90;4.00;;;;;;;19.05;64.35;99519.80;233445;1219;140003;-61
2022/06/11 04:09:29;;;;;;;6.50;4.40;;;;;;;19.12;64.07;99512.17;233515;1217;139287;-60
2022/06/11 04:14:32;;;;;;;5.40;4.30;;;;;;;19.23;63.91;99519.88;233432;1217;140014;-60
2022/06/11 04:19:38;;;;;;;7.00;3.90;;;;;;;19.29;63.77;99515.55;233505;1220;138662;-60
2022/06/11 04:24:43;;;;;;;5.30;3.90;;;;;;;19.33;63.60;99524.29;233425;1218;139007;-60
2022/06/11 04:29:51;;;;;;;4.80;4.00;;;;;;;19.31;63.43;99524.27;233502;1219;141089;-60
2022/06/11 04:34:55;;;;;;;5.20;3.80;;;;;;;19.35;63.28;99525.60;233432;1219;139764;-59
2022/06/11 04:40:00;;;;;;;8.70;4.20;;;;;;;19.44;63.21;99521.00;233410;1220;139202;-60
2022/06/11 04:45:05;;;;;;;6.30;3.60;;;;;;;19.55;63.01;99515.78;233580;1219;138095;-61
2022/06/11 04:50:08;;;;;;;7.20;3.80;;;;;;;19.61;62.88;99520.98;233451;1220;139729;-61
2022/06/11 04:55:14;;;;;;;5.60;3.70;;;;;;;19.66;62.66;99521.67;233427;1218;138977;-60
2022/06/11 05:00:22;;;;;;;8.00;4.70;;;;;;;19.64;62.55;99519.33;233563;1219;140868;-61
2022/06/11 05:05:25;;;;;;;7.50;4.20;;;;;;;19.68;62.41;99522.27;233397;1219;138618;-61
2022/06/11 05:10:31;;;;;;;8.80;4.20;;;;;;;19.70;62.25;99527.25;233423;1219;138730;-60
2022/06/11 05:15:44;;;;;;;7.60;4.20;;;;;;;19.73;62.12;99536.66;233619;1220;138376;-61
2022/06/11 05:20:48;;;;;;;45.50;35.20;;;;;;;19.78;62.39;99535.52;233242;1219;138559;-60
2022/06/11 05:25:51;;;;;;;8.70;4.60;;;;;;;19.88;62.70;99537.31;233388;1218;140106;-60
2022/06/11 05:30:55;;;;;;;44.40;36.00;;;;;;;19.98;62.92;99535.03;233448;1219;139190;-59
2022/06/11 05:35:58;;;;;;;15.20;10.20;;;;;;;20.13;62.62;99545.37;233391;1219;139554;-60
2022/06/11 05:41:01;;;;;;;5.70;5.10;;;;;;;20.21;62.16;99540.50;233489;1218;139679;-62
2022/06/11 05:46:12;;;;;;;80.00;71.30;;;;;;;20.30;62.79;99543.60;233430;1219;139654;-61
2022/06/11 05:51:21;;;;;;;74.10;60.50;;;;;;;20.52;62.96;99541.05;233444;1220;141843;-62
2022/06/11 05:56:24;;;;;;;15.00;13.40;;;;;;;20.75;62.99;99546.92;233369;1219;139764;-62
2022/06/11 06:01:32;;;;;;;30.20;24.30;;;;;;;20.98;62.94;99553.36;233291;1219;143960;-62
2022/06/11 06:06:35;;;;;;;14.10;11.10;;;;;;;21.19;62.59;99552.64;233163;1219;139960;-59
2022/06/11 06:11:39;;;;;;;7.40;4.80;;;;;;;21.35;62.27;99556.52;233372;1218;141913;-58
2022/06/11 06:16:42;;;;;;;5.00;3.80;;;;;;;21.39;61.55;99557.54;233362;1219;139266;-59
2022/06/11 06:21:45;;;;;;;5.80;3.90;;;;;;;21.39;61.15;99563.61;233528;1220;138513;-58
2022/06/11 06:26:48;;;;;;;20.20;15.20;;;;;;;21.34;60.78;99560.54;233317;1218;139442;-60
2022/06/11 06:31:51;;;;;;;14.10;5.70;;;;;;;21.41;61.41;99564.47;233462;1218;139820;-59
2022/06/11 06:36:54;;;;;;;11.60;3.80;;;;;;;21.54;61.32;99567.58;233321;1220;139323;-60
2022/06/11 06:41:59;;;;;;;12.60;4.00;;;;;;;21.61;61.23;99568.56;232008;1219;143482;-58
2022/06/11 06:47:05;;;;;;;20.50;15.30;;;;;;;21.74;61.31;99564.67;233473;1218;139491;-59
2022/06/11 06:52:08;;;;;;;10.60;4.60;;;;;;;21.82;61.05;99556.09;233279;1217;139478;-60
2022/06/11 06:57:11;;;;;;;10.70;4.00;;;;;;;21.90;60.69;99560.39;232625;1220;140498;-61
2022/06/11 07:02:14;;;;;;;5.20;3.40;;;;;;;21.92;60.50;99556.39;233231;1219;143090;-62
2022/06/11 07:07:18;;;;;;;5.80;3.10;;;;;;;21.99;60.24;99558.04;233339;1219;139180;-59
2022/06/11 07:12:22;;;;;;;4.50;3.10;;;;;;;21.96;59.99;99553.81;233391;1219;139038;-62
2022/06/11 07:17:31;;;;;;;7.20;2.90;;;;;;;21.91;59.42;99560.23;233300;1219;138497;-60
2022/06/11 07:22:38;;;;;;;5.10;3.10;;;;;;;21.89;59.55;99556.05;233391;1220;138947;-63
2022/06/11 07:27:49;;;;;;;141.90;74.30;;;;;;;21.89;59.54;99560.31;233495;1217;141427;-61
2022/06/11 07:32:57;;;;;;;14.10;11.40;;;;;;;21.84;59.57;99569.83;233339;1219;139803;-60
2022/06/11 07:38:03;;;;;;;15.30;10.50;;;;;;;21.83;59.42;99578.79;233441;1220;139382;-61
2022/06/11 07:43:06;;;;;;;;;;;;;;;21.82;59.49;99573.65;233595;1218;138976;-64
2022/06/11 07:48:11;;;;;;;6.80;3.90;;;;;;;21.88;59.46;99573.48;233488;1219;125980;-63
2022/06/11 07:53:17;;;;;;;9.20;4.70;;;;;;;21.93;59.21;99569.94;233404;1218;138560;-63
2022/06/11 07:58:25;;;;;;;7.00;3.10;;;;;;;21.95;58.89;99569.42;233433;1218;139384;-65
2022/06/11 08:03:28;;;;;;;7.20;5.90;;;;;;;21.89;58.53;99568.90;233687;1217;138499;-62
2022/06/11 08:08:32;;;;;;;8.20;5.40;;;;;;;21.90;58.33;99570.27;233326;1219;138675;-63
2022/06/11 08:13:35;;;;;;;5.40;2.20;;;;;;;21.91;58.00;99572.39;233171;1219;138472;-62
2022/06/11 08:18:39;;;;;;;4.00;2.40;;;;;;;21.92;57.84;99568.92;233359;1220;138100;-61
2022/06/11 08:23:42;;;;;;;3.50;2.10;;;;;;;22.00;57.76;99563.50;233191;1220;138569;-60
2022/06/11 08:28:45;;;;;;;3.00;1.80;;;;;;;22.03;57.29;99558.11;233496;1217;138903;-61
2022/06/11 08:33:48;;;;;;;3.20;1.80;;;;;;;21.99;57.03;99551.64;233572;1217;138475;-61
2022/06/11 08:38:54;;;;;;;2.10;1.90;;;;;;;22.06;56.76;99553.29;233284;1219;139013;-62
2022/06/11 08:44:05;;;;;;;4.00;3.10;;;;;;;22.15;56.62;99553.30;233417;1220;138381;-62
2022/06/11 08:49:12;;;;;;;2.10;1.70;;;;;;;22.32;56.22;99547.97;233398;1218;139022;-62
2022/06/11 08:54:20;;;;;;;3.80;1.80;;;;;;;22.39;55.85;99539.80;233488;1217;139510;-58
2022/06/11 08:59:39;;;;;;;2.30;1.60;;;;;;;22.51;55.52;99538.79;233468;1219;138884;-62
2022/06/11 09:05:10;;;;;;;3.70;1.60;;;;;;;22.51;55.01;99536.65;233435;1219;138708;-60
2022/06/11 09:10:40;;;;;;;2.50;1.60;;;;;;;22.60;54.87;99537.59;233340;1219;139254;-59
2022/06/11 09:15:55;;;;;;;3.40;2.00;;;;;;;22.68;54.49;99528.69;233492;1220;138673;-59
2022/06/11 09:21:28;;;;;;;4.00;1.50;;;;;;;22.79;54.14;99527.73;233417;1219;138373;-60
2022/06/11 09:26:46;;;;;;;47.20;33.10;;;;;;;22.83;53.43;99518.39;233310;1219;138956;-60
2022/06/11 09:32:06;;;;;;;12.10;8.30;;;;;;;22.93;53.75;99516.95;233354;1217;139090;-62
2022/06/11 09:37:25;;;;;;;3.20;1.90;;;;;;;23.03;53.30;99512.09;233176;1217;138445;-61
2022/06/11 09:42:43;;;;;;;3.80;1.60;;;;;;;23.02;52.86;99507.17;233350;1219;138920;-61
2022/06/11 09:47:49;;;;;;;4.20;1.50;;;;;;;23.18;52.57;99503.17;233454;1218;138301;-63
2022/06/11 09:53:05;;;;;;;2.20;1.20;;;;;;;23.25;52.29;99499.29;233423;1219;138597;-61
2022/06/11 09:58:24;;;;;;;9.80;5.60;;;;;;;23.38;52.05;99504.35;233388;1219;140050;-63
2022/06/11 10:03:49;;;;;;;7.00;2.20;;;;;;;23.57;51.50;99497.42;232951;1219;139213;-62
2022/06/11 10:09:21;;;;;;;2.30;1.40;;;;;;;23.59;51.19;99489.49;233438;1217;138753;-62
2022/06/11 10:14:36;;;;;;;2.90;1.20;;;;;;;23.70;50.91;99488.84;233470;1219;138583;-62
2022/06/11 10:19:39;;;;;;;;;;;;;;;23.87;50.21;99494.69;233454;1217;138423;-61
2022/06/11 10:25:10;;;;;;;2.90;1.40;;;;;;;24.01;49.83;99496.77;233433;1219;125232;-61
2022/06/11 10:30:33;;;;;;;3.10;1.20;;;;;;;24.14;49.40;99484.49;233390;1219;138431;-62
2022/06/11 10:35:43;;;;;;;1.90;1.00;;;;;;;24.22;49.13;99479.80;233478;1220;139166;-62
2022/06/11 10:40:49;;;;;;;2.10;1.60;;;;;;;24.40;48.84;99478.55;233369;1218;138514;-61
2022/06/11 10:45:52;;;;;;;2.80;1.80;;;;;;;24.53;48.74;99473.37;233639;1218;138329;-60
2022/06/11 10:50:58;;;;;;;3.10;1.20;;;;;;;24.70;48.68;99481.29;232851;1219;139216;-62
2022/06/11 10:56:12;;;;;;;1.70;1.20;;;;;;;24.84;48.48;99469.71;233491;1219;138572;-61
2022/06/11 11:01:29;;;;;;;4.60;1.50;;;;;;;25.01;47.72;99476.05;233528;1218;138797;-62
2022/06/11 11:06:35;;;;;;;2.30;1.30;;;;;;;25.11;47.89;99476.98;233237;1217;138449;-61
2022/06/11 11:11:48;;;;;;;5.50;2.00;;;;;;;24.95;47.51;99478.80;233412;1220;138333;-62
2022/06/11 11:16:52;;;;;;;5.20;1.80;;;;;;;25.02;47.66;99473.04;233484;1219;138263;-63
2022/06/11 11:22:09;;;;;;;162.70;145.50;;;;;;;24.93;47.32;99475.91;233501;1220;138789;-61
2022/06/11 11:27:17;;;;;;;5.00;3.60;;;;;;;24.92;47.51;99469.02;233510;1220;138940;-63
2022/06/11 11:32:37;;;;;;;2.40;1.90;;;;;;;25.01;47.30;99481.58;233247;1220;138167;-62
2022/06/11 11:37:41;;;;;;;3.70;1.60;;;;;;;25.30;47.38;99471.10;233375;1219;138651;-62
2022/06/11 11:42:45;;;;;;;3.10;1.90;;;;;;;25.20;46.78;99473.70;233313;1219;138545;-62
2022/06/11 11:47:51;;;;;;;2.50;1.90;;;;;;;25.26;47.03;99469.35;233312;1220;138204;-61
2022/06/11 11:53:05;;;;;;;3.80;1.50;;;;;;;25.45;46.88;99468.04;232836;1220;138807;-62
2022/06/11 11:58:22;;;;;;;8.80;1.90;;;;;;;25.56;46.69;99462.27;233116;1220;138702;-62
2022/06/11 12:03:30;;;;;;;6.80;2.00;;;;;;;25.87;46.70;99461.17;233312;1219;138358;-60
2022/06/11 12:08:52;;;;;;;2.60;1.60;;;;;;;25.97;46.22;99459.18;233388;1220;138424;-60
2022/06/11 12:14:10;;;;;;;7.50;2.00;;;;;;;26.21;46.46;99466.64;233182;1220;138799;-61
2022/06/11 12:19:25;;;;;;;6.30;1.80;;;;;;;25.90;45.26;99457.63;233170;1220;138767;-58
2022/06/11 12:24:35;;;;;;;4.00;1.60;;;;;;;25.87;45.15;99453.84;233344;1217;139166;-59
2022/06/11 12:29:48;;;;;;;4.70;2.10;;;;;;;25.99;45.29;99454.56;233313;1217;138339;-61
2022/06/11 12:34:52;;;;;;;12.00;7.50;;;;;;;25.85;45.21;99457.92;233440;1219;138469;-60
2022/06/11 12:40:18;;;;;;;2.40;1.70;;;;;;;26.05;45.50;99452.19;233487;1218;139866;-56
2022/06/11 12:45:26;;;;;;;3.70;2.00;;;;;;;26.33;45.37;99453.21;233498;1217;138721;-61
2022/06/11 12:50:58;;;;;;;2.40;1.90;;;;;;;26.54;44.66;99455.02;233277;1220;138425;-60
2022/06/11 12:56:21;;;;;;;4.00;1.70;;;;;;;26.48;43.87;99455.98;233294;1217;138578;-60
2022/06/11 13:01:36;;;;;;;2.20;1.50;;;;;;;26.55;44.18;99448.95;233301;1218;138514;-61
2022/06/11 13:07:09;;;;;;;4.40;1.80;;;;;;;26.86;43.80;99454.08;233399;1217;139178;-60
2022/06/11 13:12:16;;;;;;;3.80;2.00;;;;;;;26.99;43.32;99447.98;233375;1218;140032;-58
2022/06/11 13:17:25;;;;;;;1.60;1.50;;;;;;;26.89;43.20;99445.42;233420;1220;138666;-59
2022/06/11 13:22:41;;;;;;;4.30;1.90;;;;;;;27.03;43.15;99444.30;232742;1220;138352;-55
2022/06/11 13:27:55;;;;;;;9.20;1.90;;;;;;;27.22;43.23;99442.14;233501;1218;139728;-57
2022/06/11 13:33:10;;;;;;;7.80;1.90;;;;;;;27.49;43.11;99439.92;233406;1220;138609;-61
2022/06/11 13:38:38;;;;;;;6.60;5.90;;;;;;;27.44;42.25;99443.79;233351;1219;138523;-60
2022/06/11 13:44:03;;;;;;;2.60;1.90;;;;;;;26.95;42.50;99449.40;233319;1219;140577;-60
2022/06/11 13:49:48;;;;;;;2.50;1.90;;;;;;;26.80;42.78;99442.92;233397;1219;138910;-62
2022/06/11 14:00:32;;;;;;;3.40;1.90;;;;;;;27.49;42.69;99433.20;233389;1219;140259;-61
2022/06/11 14:05:41;;;;;;;2.80;1.90;;;;;;;27.63;42.23;99434.46;233314;1217;138868;-63
2022/06/11 14:10:48;;;;;;;5.90;1.80;;;;;;;27.68;41.96;99433.38;233375;1218;138521;-61
2022/06/11 14:15:51;;;;;;;2.50;1.70;;;;;;;27.79;42.02;99432.14;233474;1220;138548;-61
2022/06/11 14:20:58;;;;;;;4.00;1.60;;;;;;;27.78;41.61;99423.34;233361;1219;138676;-61
2022/06/11 14:26:24;;;;;;;2.00;1.80;;;;;;;27.76;41.33;99417.23;233325;1219;139407;-58
2022/06/11 14:32:19;;;;;;;3.40;1.90;;;;;;;27.79;41.25;99410.05;233429;1219;138632;-58
2022/06/11 14:37:27;;;;;;;8.70;7.80;;;;;;;27.48;40.65;99414.55;233423;1220;139342;-57
2022/06/11 14:43:05;;;;;;;2.60;1.60;;;;;;;27.23;40.67;99403.91;233315;1219;138509;-56
2022/06/11 14:48:20;;;;;;;5.10;1.80;;;;;;;26.98;40.75;99405.50;233320;1220;140375;-57
2022/06/11 14:53:29;;;;;;;2.10;1.40;;;;;;;26.62;40.28;99395.04;233247;1220;138029;-57
2022/06/11 14:58:48;;;;;;;4.00;1.60;;;;;;;26.42;40.67;99385.38;233337;1220;139226;-56
2022/06/11 15:04:16;;;;;;;3.10;1.60;;;;;;;26.24;40.68;99384.77;233511;1219;138321;-57
2022/06/11 15:09:47;;;;;;;3.50;1.40;;;;;;;26.02;40.93;99386.83;233314;1220;138256;-59
2022/06/11 15:15:27;;;;;;;3.10;1.40;;;;;;;25.80;40.98;99376.52;233005;1220;138216;-57
2022/06/11 15:20:43;;;;;;;2.70;1.30;;;;;;;25.60;40.88;99383.60;233322;1220;138614;-57
2022/06/11 15:25:51;;;;;;;2.50;1.60;;;;;;;25.45;40.78;99375.62;233403;1219;138942;-57
2022/06/11 15:31:03;;;;;;;3.10;1.30;;;;;;;25.31;40.72;99369.84;233312;1219;138860;-58
2022/06/11 15:36:10;;;;;;;3.10;1.50;;;;;;;25.18;40.76;99374.34;233327;1219;139761;-58
2022/06/11 15:41:18;;;;;;;2.90;1.50;;;;;;;25.09;41.07;99375.47;233469;1220;140279;-59
2022/06/11 15:46:28;;;;;;;3.80;1.50;;;;;;;25.09;41.10;99374.58;233282;1221;138405;-58
2022/06/11 15:51:32;;;;;;;3.80;1.60;;;;;;;25.08;41.09;99368.37;233428;1220;138505;-55
2022/06/11 15:56:35;;;;;;;5.40;1.40;;;;;;;25.04;41.35;99374.27;233305;1220;138551;-56
2022/06/11 16:01:50;;;;;;;3.70;1.60;;;;;;;24.94;41.40;99373.64;233491;1219;138119;-58
2022/06/11 16:06:59;;;;;;;;;;;;;;;24.93;41.25;99377.48;233428;1219;138914;-58
2022/06/11 16:12:18;;;;;;;3.40;1.50;;;;;;;24.89;41.31;99375.16;233369;1219;124860;-58
2022/06/11 16:17:30;;;;;;;4.60;2.80;;;;;;;24.88;41.48;99376.69;233285;1220;138397;-57
2022/06/11 18:57:57;;;;;;;5.50;2.80;;;;;;;21.57;48.03;99484.09;228858;1233;636547;-56
2022/06/11 19:03:01;;;;;;;39.50;32.10;;;;;;;21.55;48.07;99491.16;232965;1221;137877;-56
2022/06/11 19:08:11;;;;;;;11.60;8.50;;;;;;;21.67;48.03;99500.56;232975;1221;138245;-54
2022/06/11 19:13:18;;;;;;;10.70;5.70;;;;;;;21.83;48.13;99502.92;232816;1223;138142;-57
2022/06/11 19:18:29;;;;;;;13.80;8.90;;;;;;;22.02;47.97;99507.11;233057;1221;138643;-53
2022/06/11 19:23:32;;;;;;;11.20;5.90;;;;;;;22.15;47.68;99515.51;232900;1221;138312;-53
2022/06/11 19:28:41;;;;;;;6.70;3.60;;;;;;;22.19;47.28;99517.64;232675;1223;139438;-52
2022/06/11 19:33:45;;;;;;;9.10;3.10;;;;;;;22.21;47.19;99516.34;232843;1223;138148;-52
2022/06/11 19:38:51;;;;;;;7.20;3.30;;;;;;;22.29;47.20;99521.72;232762;1223;138712;-55
2022/06/11 19:43:56;;;;;;;5.60;2.70;;;;;;;22.33;47.03;99519.50;232656;1222;138618;-55
2022/06/11 19:49:00;;;;;;;5.90;3.20;;;;;;;22.36;47.13;99517.02;232786;1223;137960;-53
2022/06/11 19:54:03;;;;;;;9.10;3.40;;;;;;;22.36;47.18;99513.71;233051;1223;137890;-58
2022/06/11 19:59:08;;;;;;;269.70;164.80;;;;;;;22.38;47.18;99514.80;232605;1223;137999;-55
2022/06/11 20:04:12;;;;;;;;;;;;;;;22.36;46.98;99512.98;232648;1223;139107;-57
2022/06/11 20:09:16;;;;;;;11.20;6.20;;;;;;;22.32;46.85;99510.17;232929;1224;125649;-56
2022/06/11 20:14:21;;;;;;;42.10;37.60;;;;;;;22.25;46.81;99516.73;232812;1222;138425;-56
2022/06/11 20:19:28;;;;;;;319.80;264.10;;;;;;;22.23;46.89;99521.10;232459;1223;210762;-54
2022/06/11 20:24:31;;;;;;;15.80;9.40;;;;;;;22.23;46.87;99520.52;232586;1223;139638;-58
2022/06/11 20:29:34;;;;;;;9.00;3.30;;;;;;;22.11;46.66;99515.94;232494;1224;140090;-55
2022/06/11 20:34:37;;;;;;;8.00;3.00;;;;;;;21.93;46.70;99511.77;232518;1223;138170;-55
2022/06/11 20:39:41;;;;;;;7.60;2.60;;;;;;;21.78;46.65;99517.81;232833;1222;138548;-54
2022/06/11 20:44:44;;;;;;;7.30;3.00;;;;;;;21.62;46.79;99510.50;232531;1223;138227;-57
2022/06/11 20:49:48;;;;;;;5.40;2.60;;;;;;;21.47;46.97;99519.84;232842;1222;139608;-56
2022/06/11 20:54:54;;;;;;;10.00;2.90;;;;;;;21.32;47.04;99516.14;232560;1223;138252;-58
2022/06/11 20:59:58;;;;;;;5.30;2.80;;;;;;;21.18;47.32;99513.65;232635;1223;139267;-55
2022/06/11 21:05:06;;;;;;;6.60;2.90;;;;;;;21.07;47.51;99522.66;232068;1224;139990;-56
2022/06/11 21:10:11;;;;;;;5.30;2.70;;;;;;;20.95;47.77;99528.39;232340;1223;139031;-57
2022/06/11 21:15:17;;;;;;;9.40;2.70;;;;;;;20.84;48.07;99526.42;232693;1223;138499;-54
2022/06/11 21:20:27;;;;;;;6.70;3.10;;;;;;;20.74;48.23;99528.61;232485;1223;137600;-56
2022/06/11 21:25:35;;;;;;;7.60;3.00;;;;;;;20.66;48.48;99538.27;232461;1224;137781;-56
2022/06/11 21:30:40;;;;;;;6.10;3.00;;;;;;;20.57;48.76;99538.98;232410;1224;138137;-56
2022/06/11 21:35:43;;;;;;;10.60;3.40;;;;;;;20.43;49.01;99535.89;232427;1224;138587;-55
2022/06/11 21:46:07;;;;;;;6.00;3.40;;;;;;;20.20;49.77;99528.15;232772;1223;139219;-56
2022/06/11 21:51:10;;;;;;;9.50;4.10;;;;;;;20.11;50.04;99529.54;232485;1224;138210;-58
2022/06/11 21:56:13;;;;;;;9.00;4.10;;;;;;;20.01;50.31;99532.31;232343;1224;137934;-58
2022/06/11 22:01:21;;;;;;;7.30;3.90;;;;;;;19.89;50.67;99531.65;232509;1224;138158;-53
2022/06/11 22:06:26;;;;;;;9.90;4.70;;;;;;;19.76;51.01;99532.43;232483;1221;138301;-58
2022/06/11 22:11:32;;;;;;;8.30;4.80;;;;;;;19.66;51.22;99525.81;232422;1224;139414;-59
2022/06/11 22:16:36;;;;;;;7.70;4.40;;;;;;;19.55;51.39;99527.89;233177;1223;138962;-53
2022/06/11 22:21:44;;;;;;;8.80;4.50;;;;;;;19.43;51.65;99531.51;233309;1223;138922;-53
2022/06/11 22:26:47;;;;;;;8.80;4.40;;;;;;;19.31;51.99;99535.86;233762;1220;138553;-56
2022/06/11 22:31:51;;;;;;;14.50;5.00;;;;;;;19.21;52.26;99529.92;233558;1220;138549;-56
2022/06/11 22:36:54;;;;;;;10.80;4.50;;;;;;;19.13;52.53;99538.29;233781;1220;138408;-57
2022/06/11 22:41:58;;;;;;;8.00;4.70;;;;;;;19.03;52.69;99533.34;233648;1220;138419;-55
2022/06/11 22:47:01;;;;;;;7.20;3.90;;;;;;;18.93;52.71;99530.41;233391;1219;138807;-55
2022/06/11 22:52:05;;;;;;;10.40;4.80;;;;;;;18.84;53.05;99533.15;233277;1220;138827;-56
2022/06/11 22:57:08;;;;;;;9.70;4.40;;;;;;;18.77;53.02;99532.98;232962;1220;138528;-55
2022/06/11 23:02:11;;;;;;;9.00;4.30;;;;;;;18.68;53.37;99528.46;233143;1221;138880;-53
2022/06/11 23:07:14;;;;;;;7.20;3.80;;;;;;;18.60;53.51;99519.63;233151;1220;138467;-55
2022/06/11 23:12:17;;;;;;;7.00;3.80;;;;;;;18.56;53.68;99521.58;233176;1220;138368;-58
2022/06/11 23:17:20;;;;;;;10.30;4.00;;;;;;;18.51;54.07;99526.68;233208;1220;138406;-58
2022/06/11 23:22:24;;;;;;;7.40;4.00;;;;;;;18.47;54.19;99531.89;233032;1220;138968;-56
2022/06/11 23:27:27;;;;;;;7.30;3.60;;;;;;;18.43;54.40;99537.45;233229;1220;138562;-57
2022/06/11 23:32:30;;;;;;;6.80;4.20;;;;;;;18.37;54.48;99533.29;233088;1220;138112;-56
2022/06/11 23:37:33;;;;;;;9.80;4.50;;;;;;;18.29;54.70;99532.97;233231;1219;139709;-56
2022/06/11 23:42:37;;;;;;;7.20;3.80;;;;;;;18.23;54.70;99537.23;233137;1220;138710;-57
2022/06/11 23:47:41;;;;;;;8.20;4.00;;;;;;;18.14;54.98;99534.00;233224;1220;138622;-56
2022/06/11 23:52:44;;;;;;;6.40;4.30;;;;;;;18.06;55.06;99539.23;233180;1220;138320;-61
2022/06/11 23:57:49;;;;;;;6.20;3.60;;;;;;;18.04;55.26;99538.73;233268;1220;138439;-57
